Historyczne dane pomiarowe

Dodano dane terminowe – wersja testowa.

Dane z okresu 1951-2019

Wersja bazy: 1.34 [2019-03-16, lista zmian], aktualizacja planowana na 2019-04-15

Dane meteo z obszaru Polski uzyskane na podstawie danych udostępnionych przez Instytut Meteorologii i Gospodarki Wodnej – Państwowy Instytut Badawczy.

 

Wybierz Datę:    

       

TemperaturaWilgotnośćWiatrCiśnienieOpadyŚniegCzas trwania zjawisk
 Stacja t tx tn tng RH VA  wxwx mslp ppp RRR   cm mm wxwxwxwxwxwxwx
1936-09-11 11.4 17.0 6.0- 65.0-----1014.2- 0.0--x- 11.0-------
1936-09-12 11.5 18.5 6.6- 69.0-----1014.4- 0.0--x- 10.4-------
1936-09-13 12.1 19.0 5.2- 62.0-----1013.2- 0.0--x- 11.5-------
1936-09-14 13.0 20.2 6.8- 65.0-----1012.9- 0.0--x- 11.3-------
1936-09-15 14.9 21.9 8.0- 60.0-----1013.8- 0.0--x- 10.9-------
1936-09-16 16.2 23.3 8.9- 63.0-----1016.7- 0.0--x- 0.7-------
1936-09-17 17.4 24.4 10.3- 63.0-----1017.2- 0.0--x- 11.2-------
1936-09-18 17.5 24.2 10.0- 63.0-----1012.3- 0.0--x- 7.3-------
1936-09-19 15.6 23.5 12.0- 79.0-----1011.3- 0.3--x- 4.9-------
1936-09-20 14.3 23.0 9.6- 74.0-----1014.0- 0.0--x- 4.8-------
1936-09-21 19.8 27.0 14.6- 66.0-----1013.3- 0.0--x- 8.2-------
1936-09-22 15.9 19.9 13.0- 77.0-----1013.5- 0.4--x- 3.5-------
1936-09-23 14.3 19.9 11.8- 77.0-----1012.7- 0.0--x- 9.6-------
1936-09-24 13.4 18.5 9.4- 82.0-----1004.6- 0.0--x- 4.2-------
1936-09-25 16.9 22.6 8.5- 73.0----- 999.1- 4.3--x- 6.8-------
1936-09-26 9.9 17.2 6.8- 83.0----- 996.2- 1.9--x- 1.1-------
1936-09-27 6.7 12.5 0.9- 76.0----- 996.3- 0.0--x- 2.4-------
1936-09-28 6.7 10.9 4.5- 75.0-----1000.0- 0.9--x- 3.1-------
1936-09-29 5.9 12.1 3.2- 81.0-----1005.3- 1.4--x- 4.9-------
1936-09-30 7.1 13.7 4.2- 78.0-----1004.2- 0.0--x- 8.7-------
1936-10-01 6.2 11.5 3.5- 75.0-----1002.7- 0.4--x- 1.3-------
1936-10-02 5.0 11.0 2.3- 85.0-----1007.6- 0.9--x- 4.7-------
1936-10-03 5.5 8.7 0.0- 79.0-----1008.2- 0.1--x- 0.4-------
1936-10-04 7.1 9.8 4.2- 94.0----- 997.7- 10.3--x- 0.0-------
1936-10-05 3.9 9.6 -0.1- 86.0-----1000.4- 0.4--x- 3.5-------
1936-10-06 4.5 9.6 2.0- 79.0-----1004.0- 0.1--x- 6.9-------
1936-10-07 3.5 8.0 -1.7- 81.0-----1005.5- 0.0--x- 3.1-------
1936-10-08 5.1 9.6 0.3- 74.0-----1006.3- 0.0--x- 7.4-------
1936-10-09 3.1 7.5 -0.4- 79.0-----1007.5- 0.0--x- 5.1-------
1936-10-10 2.9 4.8 -0.5- 85.0-----1008.7- 0.0--x- 0.0-------
2.5 ms

 

Źródłem pochodzenia danych jest Instytut Meteorologii i Gospodarki Wodnej – Państwowy Instytut Badawczy. Dane Instytutu Meteorologii i Gospodarki Wodnej – Państwowego Instytutu Badawczego zostały przetworzone.

Dane źródłowe można odnaleźć na stronie https://dane.imgw.pl